Time;durP1;ratioP1;P1;durP2;ratioP2;P2;SDS_P1;SDS_P2;PMS_P1;PMS_P2;Temp;Humidity;BMP_temperature;BMP_pressure;BME280_temperature;BME280_humidity;BME280_pressure;Samples;Min_cycle;Max_cycle;Signal;HPM_P1;HPM_P2
2023/12/11 00:02:07;;;;;;;4.67;1.80;;;;;;;9.42;99.35;98917.44;5068364;28;20296;-82
2023/12/11 00:04:35;;;;;;;6.60;2.00;;;;;;;9.42;98.98;98915.63;5063499;28;20209;-82
2023/12/11 00:07:02;;;;;;;6.27;2.00;;;;;;;9.43;98.47;98922.63;5070463;28;20221;-83
2023/12/11 00:09:28;;;;;;;4.90;2.67;;;;;;;9.40;98.58;98915.75;5067490;28;20210;-83
2023/12/11 00:11:56;;;;;;;10.23;3.30;;;;;;;9.39;98.16;98916.75;5065041;28;20211;-82
2023/12/11 00:14:23;;;;;;;12.33;2.70;;;;;;;9.41;97.63;98929.88;5060098;28;20255;-82
2023/12/11 00:16:50;;;;;;;6.23;2.13;;;;;;;9.42;97.62;98917.44;5059517;28;20226;-82
2023/12/11 00:19:16;;;;;;;7.23;2.03;;;;;;;9.41;97.39;98927.22;5066364;28;20193;-83
2023/12/11 00:21:44;;;;;;;6.90;2.30;;;;;;;9.41;97.46;98916.59;5065230;28;20660;-81
2023/12/11 00:24:11;;;;;;;8.83;2.50;;;;;;;9.44;97.27;98916.34;5064394;28;20305;-83
2023/12/11 00:26:38;;;;;;;8.80;2.53;;;;;;;9.46;97.66;98921.53;5062396;28;20217;-82
2023/12/11 00:29:05;;;;;;;7.03;2.43;;;;;;;9.51;97.34;98935.25;5070669;28;20287;-81
2023/12/11 00:31:31;;;;;;;9.77;2.63;;;;;;;9.53;97.29;98928.81;5065755;28;21002;-82
2023/12/11 00:33:58;;;;;;;7.07;2.60;;;;;;;9.57;96.92;98919.63;5067105;28;20225;-82
2023/12/11 00:36:25;;;;;;;9.70;2.50;;;;;;;9.57;97.38;98927.59;5072387;28;20224;-83
2023/12/11 00:38:53;;;;;;;6.97;2.90;;;;;;;9.58;97.43;98923.97;5068802;28;20280;-84
2023/12/11 00:41:20;;;;;;;5.40;2.20;;;;;;;9.58;97.24;98918.66;5064396;28;20197;-82
2023/12/11 00:43:46;;;;;;;7.10;2.57;;;;;;;9.60;97.25;98923.84;5065607;28;20214;-84
2023/12/11 00:46:14;;;;;;;10.40;2.47;;;;;;;9.61;96.90;98925.53;5067990;28;20236;-82
2023/12/11 00:48:40;;;;;;;9.47;2.43;;;;;;;9.61;96.27;98931.69;5070757;28;20211;-84
2023/12/11 00:51:07;;;;;;;10.00;2.40;;;;;;;9.61;96.53;98931.69;5062881;28;20582;-82
2023/12/11 00:53:34;;;;;;;10.67;2.77;;;;;;;9.60;96.72;98929.16;5067391;28;20225;-82
2023/12/11 00:56:04;;;;;;;8.50;2.60;;;;;;;9.61;96.53;98933.50;5063939;28;20224;-82
2023/12/11 00:58:31;;;;;;;6.90;2.60;;;;;;;9.60;96.17;98932.66;5059510;28;20213;-84
2023/12/11 01:00:58;;;;;;;10.07;3.17;;;;;;;9.60;96.28;98935.31;5067702;28;20203;-84
2023/12/11 01:03:24;;;;;;;11.77;2.53;;;;;;;9.57;96.57;98940.03;5064345;28;20205;-82
2023/12/11 01:05:51;;;;;;;7.47;2.53;;;;;;;9.56;96.26;98936.53;5068952;28;20229;-83
2023/12/11 01:08:17;;;;;;;7.07;2.17;;;;;;;9.58;96.16;98941.72;5059385;28;20220;-82
2023/12/11 01:10:44;;;;;;;8.77;2.50;;;;;;;9.58;96.60;98945.22;5059352;28;20585;-82
2023/12/11 01:13:12;;;;;;;7.47;2.53;;;;;;;9.60;96.12;98945.94;5067882;28;20208;-82
2023/12/11 01:15:38;;;;;;;4.77;1.93;;;;;;;9.58;96.07;98952.34;5064728;28;20224;-82
2023/12/11 01:18:05;;;;;;;7.50;2.03;;;;;;;9.54;96.28;98953.59;5069379;28;20215;-82
2023/12/11 01:20:32;;;;;;;6.20;1.80;;;;;;;9.56;96.28;98952.50;5069022;28;20198;-83
2023/12/11 01:22:58;;;;;;;5.57;1.97;;;;;;;9.55;95.80;98952.63;5066807;28;20205;-83
2023/12/11 01:25:25;;;;;;;5.13;2.10;;;;;;;9.55;96.13;98964.09;5068013;28;20235;-83
2023/12/11 01:27:51;;;;;;;6.70;2.40;;;;;;;9.55;96.13;98955.28;5066158;28;20210;-83
2023/12/11 01:30:19;;;;;;;10.00;2.93;;;;;;;9.52;95.92;98959.03;5069091;28;20209;-82
2023/12/11 01:32:46;;;;;;;8.43;2.37;;;;;;;9.54;95.82;98975.69;5067079;28;20268;-83
2023/12/11 01:35:12;;;;;;;10.30;3.40;;;;;;;9.57;95.73;98966.63;5072938;28;20240;-83
2023/12/11 01:37:39;;;;;;;10.33;2.90;;;;;;;9.55;95.78;98966.75;5060058;28;20248;-83
2023/12/11 01:40:07;;;;;;;11.03;2.53;;;;;;;9.54;95.84;98961.56;5068150;28;20208;-82
2023/12/11 01:42:34;;;;;;;9.00;2.53;;;;;;;9.52;96.08;98963.50;5063892;28;20206;-82
2023/12/11 01:45:01;;;;;;;11.90;3.00;;;;;;;9.49;96.06;98974.44;5068673;28;20199;-82
2023/12/11 01:47:29;;;;;;;19.87;3.80;;;;;;;9.51;96.02;98975.09;5067233;28;20213;-82
2023/12/11 01:49:56;;;;;;;8.53;2.90;;;;;;;9.51;95.89;98988.41;5076642;28;20202;-83
2023/12/11 01:52:23;;;;;;;13.33;3.27;;;;;;;9.50;96.00;98995.53;5076058;28;20201;-82
2023/12/11 01:54:50;;;;;;;10.20;2.60;;;;;;;9.51;95.73;98985.72;5064960;28;20621;-83
2023/12/11 01:57:16;;;;;;;11.97;2.77;;;;;;;9.53;95.19;98995.28;5061556;28;20644;-83
2023/12/11 01:59:43;;;;;;;9.00;2.50;;;;;;;9.51;95.34;99005.19;5072485;28;20204;-82
2023/12/11 02:02:10;;;;;;;10.17;2.30;;;;;;;9.55;95.17;99005.78;5066902;28;20313;-83
2023/12/11 02:04:38;;;;;;;8.70;2.20;;;;;;;9.54;95.25;99007.59;5069346;28;20287;-83
2023/12/11 02:07:05;;;;;;;18.47;3.90;;;;;;;9.56;94.75;98999.47;5061975;28;20227;-83
2023/12/11 02:09:32;;;;;;;14.20;3.37;;;;;;;9.57;94.24;99009.13;5068844;28;20216;-82
2023/12/11 02:11:58;;;;;;;17.83;3.70;;;;;;;9.54;94.35;99004.94;5068617;28;20197;-82
2023/12/11 02:14:25;;;;;;;16.10;2.93;;;;;;;9.52;94.37;99009.53;5067076;28;20225;-79
2023/12/11 02:16:52;;;;;;;12.53;3.57;;;;;;;9.53;93.81;99007.72;5061485;28;20225;-80
2023/12/11 02:19:19;;;;;;;15.20;2.70;;;;;;;9.53;93.61;99005.91;5064750;28;20213;-79
2023/12/11 02:21:47;;;;;;;10.30;2.77;;;;;;;9.54;93.30;99001.44;5063670;28;20213;-79
2023/12/11 02:24:19;;;;;;;8.70;2.27;;;;;;;9.52;93.32;99001.56;5068333;28;20273;-78
2023/12/11 02:26:48;;;;;;;11.43;3.33;;;;;;;9.50;93.20;99014.13;5073961;28;20321;-79
2023/12/11 02:29:14;;;;;;;12.63;2.80;;;;;;;9.50;93.27;99015.94;5068142;28;20197;-81
2023/12/11 02:31:41;;;;;;;14.43;3.40;;;;;;;9.45;93.34;99019.00;5068920;28;20212;-79
2023/12/11 02:34:08;;;;;;;15.13;3.20;;;;;;;9.45;93.67;99015.50;5069354;28;20228;-79
2023/12/11 02:36:35;;;;;;;13.93;4.17;;;;;;;9.43;93.36;99018.28;5066986;28;20787;-80
2023/12/11 02:39:02;;;;;;;14.23;2.90;;;;;;;9.44;93.02;99012.00;5063475;28;20835;-81
2023/12/11 02:41:29;;;;;;;16.23;3.53;;;;;;;9.48;92.53;99008.13;5068986;28;20572;-80
2023/12/11 02:43:56;;;;;;;10.77;3.40;;;;;;;9.44;92.52;99009.34;5057989;28;20251;-81
2023/12/11 02:46:23;;;;;;;14.27;3.33;;;;;;;9.48;93.15;99010.78;5069359;28;20315;-81
2023/12/11 02:48:50;;;;;;;12.47;3.70;;;;;;;9.49;93.38;99009.81;5070025;28;20201;-81
2023/12/11 02:51:17;;;;;;;10.00;3.73;;;;;;;9.49;93.80;99012.47;5069488;28;20313;-80
2023/12/11 02:53:43;;;;;;;8.70;3.40;;;;;;;9.47;94.14;99003.78;5068323;28;20220;-81
2023/12/11 02:56:10;;;;;;;11.90;3.50;;;;;;;9.48;94.07;99005.47;5064452;28;20221;-80
2023/12/11 02:58:37;;;;;;;15.23;4.40;;;;;;;9.51;93.67;99012.31;5065979;28;20215;-79
2023/12/11 03:01:05;;;;;;;11.47;3.73;;;;;;;9.48;94.01;99008.13;5072699;28;20223;-80
2023/12/11 03:03:31;;;;;;;12.83;4.30;;;;;;;9.46;94.01;99001.25;5066989;28;20212;-80
2023/12/11 03:05:58;;;;;;;12.13;3.80;;;;;;;9.46;93.97;99002.09;5067906;28;20232;-82
2023/12/11 03:08:24;;;;;;;10.03;3.87;;;;;;;9.46;94.34;98996.78;5066268;28;20194;-81
2023/12/11 03:10:51;;;;;;;16.13;4.90;;;;;;;9.46;94.08;98994.13;5070747;28;20209;-81
2023/12/11 03:13:17;;;;;;;14.57;4.43;;;;;;;9.44;94.24;98989.91;5069759;28;20296;-80
2023/12/11 03:15:44;;;;;;;14.23;4.93;;;;;;;9.42;94.08;98995.34;5071681;28;20320;-81
2023/12/11 03:18:12;;;;;;;14.43;4.80;;;;;;;9.42;93.79;98992.69;5071754;28;20201;-80
2023/12/11 03:20:39;;;;;;;13.80;5.07;;;;;;;9.40;93.83;98998.13;5067436;28;20202;-81
2023/12/11 03:23:05;;;;;;;18.23;5.53;;;;;;;9.38;93.30;98991.25;5069511;28;20490;-81
2023/12/11 03:25:32;;;;;;;15.17;4.90;;;;;;;9.39;92.96;98996.44;5065212;28;20308;-81
2023/12/11 03:27:59;;;;;;;15.57;5.13;;;;;;;9.38;93.47;98991.25;5066374;28;20292;-80
2023/12/11 03:30:25;;;;;;;11.97;4.83;;;;;;;9.37;93.29;98994.88;5069720;28;20303;-80
2023/12/11 03:32:52;;;;;;;10.40;4.57;;;;;;;9.34;92.53;98993.31;5067825;28;20293;-80
2023/12/11 03:35:20;;;;;;;17.27;5.53;;;;;;;9.36;91.91;98998.50;5065312;28;20245;-80
2023/12/11 03:37:46;;;;;;;16.90;5.57;;;;;;;9.34;91.87;98987.16;5062764;28;20221;-79
2023/12/11 03:40:13;;;;;;;13.73;4.90;;;;;;;9.33;92.36;98993.44;5073969;28;20197;-79
2023/12/11 03:42:39;;;;;;;19.83;5.10;;;;;;;9.32;92.20;98984.63;5066325;28;20264;-79
2023/12/11 03:45:06;;;;;;;16.10;5.13;;;;;;;9.34;92.54;98984.50;5068424;28;20243;-82
2023/12/11 03:47:33;;;;;;;17.63;5.47;;;;;;;9.32;92.18;98984.63;5066501;28;20207;-80
2023/12/11 03:50:00;;;;;;;16.40;4.50;;;;;;;9.34;91.73;98987.16;5065351;28;20295;-79
2023/12/11 03:52:28;;;;;;;18.13;5.10;;;;;;;9.31;91.41;98987.44;5064777;28;20296;-81
2023/12/11 03:54:54;;;;;;;15.43;4.80;;;;;;;9.33;91.34;98982.81;5062956;28;20247;-81
2023/12/11 03:57:21;;;;;;;11.03;4.57;;;;;;;9.36;90.84;98990.53;5076532;28;20312;-80
2023/12/11 03:59:47;;;;;;;17.83;5.67;;;;;;;9.36;91.29;98994.03;5070446;28;20212;-80
2023/12/11 04:02:14;;;;;;;11.87;4.20;;;;;;;9.34;91.67;98998.63;5063259;28;20197;-80
2023/12/11 04:04:41;;;;;;;19.80;5.47;;;;;;;9.31;91.88;98990.97;5063653;28;20292;-81
2023/12/11 04:07:07;;;;;;;19.20;8.70;;;;;;;9.33;92.44;99004.09;5066005;28;20748;-81
2023/12/11 04:09:35;;;;;;;20.10;6.00;;;;;;;9.33;92.23;98998.75;5065898;28;21034;-79
2023/12/11 04:12:02;;;;;;;16.37;4.30;;;;;;;9.32;91.90;98989.94;5061025;28;20237;-81
2023/12/11 04:14:28;;;;;;;15.17;4.90;;;;;;;9.32;92.28;98986.44;5064621;28;20312;-80
2023/12/11 04:16:55;;;;;;;22.50;5.40;;;;;;;9.31;92.21;98988.31;5064685;28;20312;-80
2023/12/11 04:19:21;;;;;;;19.30;4.67;;;;;;;9.33;92.53;98986.31;5065301;28;20205;-80
2023/12/11 04:21:48;;;;;;;14.03;5.20;;;;;;;9.33;92.35;98982.81;5064430;28;20292;-82
2023/12/11 04:24:14;;;;;;;16.90;4.83;;;;;;;9.34;92.25;98979.19;5064472;28;20289;-79
2023/12/11 04:26:42;;;;;;;19.30;4.87;;;;;;;9.33;92.46;98966.88;5057148;28;20228;-80
2023/12/11 04:29:09;;;;;;;15.77;4.20;;;;;;;9.30;91.86;98961.88;5066605;28;20291;-80
2023/12/11 04:31:35;;;;;;;16.93;4.17;;;;;;;9.29;91.43;98981.44;5059793;28;20218;-81
2023/12/11 04:34:03;;;;;;;14.40;4.00;;;;;;;9.28;91.23;98979.75;5071845;28;20549;-80
2023/12/11 04:36:29;;;;;;;18.33;5.03;;;;;;;9.27;91.39;98970.94;5066265;28;20227;-80
2023/12/11 04:38:56;;;;;;;13.63;4.30;;;;;;;9.25;91.67;98978.19;5069791;28;20276;-80
2023/12/11 04:41:22;;;;;;;18.83;4.00;;;;;;;9.25;92.37;98974.69;5068504;28;20207;-81
2023/12/11 04:43:50;;;;;;;14.70;4.47;;;;;;;9.25;92.58;98972.03;5067188;28;20300;-80
2023/12/11 04:46:17;;;;;;;18.60;5.43;;;;;;;9.21;92.89;98966.13;5067687;28;20320;-80
2023/12/11 04:48:43;;;;;;;17.17;5.50;;;;;;;9.20;93.01;98972.41;5068645;28;20399;-81
2023/12/11 04:51:10;;;;;;;12.77;3.37;;;;;;;9.24;91.99;98978.31;5069245;28;20203;-81
2023/12/11 04:53:36;;;;;;;8.90;2.20;;;;;;;9.23;91.60;98972.16;5061318;28;20211;-79
2023/12/11 04:56:06;;;;;;;11.47;3.50;;;;;;;9.24;92.13;98959.72;5075873;28;20319;-79
2023/12/11 04:58:33;;;;;;;9.67;2.20;;;;;;;9.19;92.44;98967.22;5071889;28;20196;-78
2023/12/11 05:01:01;;;;;;;6.73;2.30;;;;;;;9.12;92.29;98974.03;5066078;28;20209;-79
2023/12/11 05:03:27;;;;;;;13.43;2.80;;;;;;;9.05;93.08;98968.38;5065629;28;20207;-78
2023/12/11 05:05:54;;;;;;;6.97;2.30;;;;;;;9.00;94.17;98958.13;5062889;28;20311;-79
2023/12/11 05:08:20;;;;;;;13.43;2.33;;;;;;;8.97;95.30;98954.88;5066274;28;20296;-79
2023/12/11 05:10:47;;;;;;;11.87;2.50;;;;;;;8.95;95.87;98956.88;5062103;28;20215;-79
2023/12/11 05:13:13;;;;;;;13.37;2.97;;;;;;;8.87;95.75;98957.50;5069680;28;21651;-78
2023/12/11 05:15:40;;;;;;;11.10;2.50;;;;;;;8.83;97.21;98956.03;5063361;28;20225;-79
2023/12/11 05:18:08;;;;;;;12.27;2.80;;;;;;;8.81;97.66;98960.63;5062972;28;20220;-81
2023/12/11 05:20:34;;;;;;;11.97;4.47;;;;;;;8.77;98.34;98947.78;5066147;28;20211;-80
2023/12/11 05:23:01;;;;;;;15.57;3.90;;;;;;;8.77;98.20;98961.88;5063931;28;20196;-80
2023/12/11 05:25:28;;;;;;;13.17;3.20;;;;;;;8.76;98.43;98954.88;5064583;28;20225;-78
2023/12/11 05:27:54;;;;;;;12.07;3.43;;;;;;;8.74;98.87;98948.88;5060215;28;20847;-78
2023/12/11 05:30:21;;;;;;;14.13;3.73;;;;;;;8.73;99.45;98947.19;5065613;28;20291;-78
2023/12/11 05:32:47;;;;;;;14.87;3.63;;;;;;;8.76;99.74;98948.75;5064780;28;20204;-78
2023/12/11 05:35:15;;;;;;;13.13;3.30;;;;;;;8.76;99.93;98931.00;5064858;28;20232;-79
2023/12/11 05:37:42;;;;;;;17.60;3.73;;;;;;;8.79;100.00;98936.03;5067149;28;20219;-78
2023/12/11 05:40:10;;;;;;;18.50;4.40;;;;;;;8.81;100.00;98928.78;5065141;28;22047;-78
2023/12/11 05:42:36;;;;;;;18.37;3.60;;;;;;;8.84;100.00;98931.19;5062667;28;21006;-80
2023/12/11 05:45:03;;;;;;;15.93;4.00;;;;;;;8.85;100.00;98922.25;5062915;28;20719;-78
2023/12/11 05:47:29;;;;;;;20.13;3.50;;;;;;;8.89;100.00;98920.19;5060075;28;20307;-78
2023/12/11 05:49:56;;;;;;;16.77;3.90;;;;;;;8.87;100.00;98915.00;5061618;28;20714;-78
2023/12/11 05:52:24;;;;;;;17.60;2.90;;;;;;;8.90;100.00;98913.91;5061914;28;20208;-80
2023/12/11 05:54:51;;;;;;;13.53;3.43;;;;;;;8.91;100.00;98913.78;5067946;28;20225;-80
2023/12/11 05:57:18;;;;;;;18.50;3.00;;;;;;;8.91;100.00;98919.09;5066590;28;20229;-80
2023/12/11 05:59:44;;;;;;;19.00;4.13;;;;;;;8.91;100.00;98924.41;5057512;28;20241;-81
2023/12/11 06:02:11;;;;;;;21.10;4.20;;;;;;;8.91;99.65;98920.91;5056897;28;20205;-80
2023/12/11 06:04:38;;;;;;;24.80;4.73;;;;;;;8.92;98.75;98919.94;5062331;28;20217;-78
2023/12/11 06:07:05;;;;;;;15.83;3.57;;;;;;;8.92;98.57;98918.13;5061188;28;20571;-79
2023/12/11 06:09:32;;;;;;;22.80;4.23;;;;;;;8.91;98.45;98913.78;5057643;28;20248;-77
2023/12/11 06:11:59;;;;;;;21.53;3.27;;;;;;;8.92;97.81;98915.47;5064210;28;20611;-78
2023/12/11 06:14:26;;;;;;;18.37;3.17;;;;;;;8.95;97.84;98917.03;5062161;28;20568;-77
2023/12/11 06:16:52;;;;;;;12.97;3.10;;;;;;;8.98;97.71;98914.94;5066444;28;20233;-76
2023/12/11 06:19:19;;;;;;;14.20;2.90;;;;;;;8.97;97.58;98915.91;5071655;28;20223;-77
2023/12/11 06:21:45;;;;;;;17.90;3.37;;;;;;;9.04;97.26;98918.91;5069585;28;20217;-78
2023/12/11 06:24:12;;;;;;;16.47;3.20;;;;;;;9.01;97.16;98930.63;5060897;28;20295;-78
2023/12/11 06:26:42;;;;;;;11.90;2.70;;;;;;;9.07;96.60;98923.97;5061102;28;20302;-78
2023/12/11 06:29:08;;;;;;;15.43;3.77;;;;;;;9.11;95.47;98921.88;5067825;28;20755;-78
2023/12/11 06:31:35;;;;;;;20.37;3.30;;;;;;;9.11;95.42;98906.81;5064761;28;20206;-78
2023/12/11 06:34:02;;;;;;;16.83;3.77;;;;;;;9.10;95.95;98905.13;5069029;28;20671;-77
2023/12/11 06:36:28;;;;;;;15.60;3.40;;;;;;;9.10;96.10;98906.94;5061568;28;20225;-78
2023/12/11 06:38:55;;;;;;;12.70;2.43;;;;;;;9.15;94.94;98900.22;5071398;28;20218;-76
2023/12/11 06:41:22;;;;;;;11.83;3.33;;;;;;;9.17;94.73;98914.22;5064466;28;20321;-77
2023/12/11 06:43:53;;;;;;;12.67;4.37;;;;;;;9.14;95.24;98919.78;5067298;28;20299;-77
2023/12/11 06:46:20;;;;;;;16.30;3.60;;;;;;;9.17;94.34;98922.19;5070725;28;20283;-76
2023/12/11 06:48:46;;;;;;;9.60;2.97;;;;;;;9.16;94.84;98911.69;5067098;28;20271;-78
2023/12/11 06:51:15;;;;;;;18.30;3.17;;;;;;;9.18;95.71;98909.75;5066447;28;20211;-79
2023/12/11 06:53:42;;;;;;;10.60;2.67;;;;;;;9.17;96.41;98895.63;5055030;28;20615;-78
2023/12/11 06:56:09;;;;;;;12.63;3.80;;;;;;;9.14;96.84;98906.50;5056632;28;20225;-78
2023/12/11 06:58:36;;;;;;;13.60;3.73;;;;;;;9.11;97.42;98904.16;5051182;28;20207;-77
2023/12/11 07:01:04;;;;;;;13.63;4.33;;;;;;;9.11;98.48;98903.31;5066464;28;20204;-77
2023/12/11 07:03:30;;;;;;;16.00;3.77;;;;;;;9.05;98.77;98905.50;5067331;28;20584;-77
2023/12/11 07:05:59;;;;;;;10.37;2.53;;;;;;;9.03;99.00;98911.91;5063305;28;20232;-77
2023/12/11 07:08:27;;;;;;;10.00;2.87;;;;;;;9.07;99.60;98907.19;5073741;28;20257;-77
2023/12/11 07:10:53;;;;;;;8.07;2.37;;;;;;;9.03;99.08;98915.41;5069214;28;20201;-78
2023/12/11 07:13:20;;;;;;;12.77;3.60;;;;;;;8.98;99.69;98925.56;5058981;28;20232;-78
2023/12/11 07:15:46;;;;;;;13.20;3.00;;;;;;;9.00;99.47;98922.78;5062352;28;20711;-77
2023/12/11 07:18:15;;;;;;;14.43;4.50;;;;;;;8.98;99.27;98925.56;5072295;28;20740;-77
2023/12/11 07:20:41;;;;;;;20.43;8.87;;;;;;;9.00;99.66;98925.44;5059971;28;20204;-78
2023/12/11 07:23:10;;;;;;;9.10;1.97;;;;;;;9.02;100.00;98921.69;5061314;28;20781;-77
2023/12/11 07:25:36;;;;;;;12.40;4.47;;;;;;;9.01;99.92;98930.63;5061449;28;20227;-78
2023/12/11 07:28:03;;;;;;;8.57;2.10;;;;;;;9.00;100.00;98920.97;5060160;28;20250;-78
2023/12/11 07:30:29;;;;;;;12.43;2.77;;;;;;;8.98;100.00;98925.56;5068324;28;20220;-77
2023/12/11 07:32:56;;;;;;;15.20;2.97;;;;;;;8.90;100.00;98925.38;5062656;28;20204;-79
2023/12/11 07:35:24;;;;;;;10.13;2.60;;;;;;;8.93;100.00;98926.94;5069776;28;20609;-78
2023/12/11 07:37:51;;;;;;;9.50;2.80;;;;;;;8.88;100.00;98923.81;5062888;28;20215;-79
2023/12/11 07:40:18;;;;;;;7.30;2.13;;;;;;;8.87;100.00;98922.97;5063130;28;20219;-77
2023/12/11 07:42:44;;;;;;;9.00;2.33;;;;;;;8.86;100.00;98926.59;5071470;28;20217;-77
2023/12/11 07:45:11;;;;;;;11.07;2.57;;;;;;;8.86;100.00;98942.53;5060985;28;20625;-78
2023/12/11 07:47:38;;;;;;;10.37;2.97;;;;;;;8.85;100.00;98932.03;5060575;28;20333;-78
2023/12/11 07:50:05;;;;;;;10.43;2.90;;;;;;;8.83;100.00;98932.16;5065938;28;20223;-78
2023/12/11 07:52:33;;;;;;;7.37;2.03;;;;;;;8.82;100.00;98927.81;5063055;28;20207;-77
2023/12/11 07:55:00;;;;;;;10.47;3.30;;;;;;;8.78;100.00;98934.34;5063920;28;20212;-77
2023/12/11 07:57:27;;;;;;;12.83;2.70;;;;;;;8.76;100.00;98932.81;5061042;28;20247;-77
2023/12/11 07:59:54;;;;;;;10.10;2.30;;;;;;;8.75;100.00;98926.66;5058599;28;21410;-79
2023/12/11 08:02:21;;;;;;;8.27;1.97;;;;;;;8.75;100.00;98924.00;5056988;28;20202;-80
2023/12/11 08:04:47;;;;;;;9.23;2.07;;;;;;;8.73;100.00;98923.28;5058185;28;20212;-79
2023/12/11 08:07:14;;;;;;;10.93;2.43;;;;;;;8.70;100.00;98926.19;5062853;28;20221;-79
2023/12/11 08:09:42;;;;;;;10.27;2.30;;;;;;;8.72;100.00;98924.25;5060813;28;20212;-79
2023/12/11 08:12:09;;;;;;;5.20;1.63;;;;;;;8.73;100.00;98925.09;5061859;28;20204;-79
2023/12/11 08:14:37;;;;;;;8.67;1.20;;;;;;;8.74;100.00;98932.94;5064275;28;20197;-79
2023/12/11 08:17:04;;;;;;;6.93;2.43;;;;;;;8.70;100.00;98920.88;5058087;28;20679;-80
2023/12/11 08:19:33;;;;;;;8.97;1.67;;;;;;;8.67;100.00;98921.13;5065680;28;20208;-79
2023/12/11 08:22:00;;;;;;;8.17;2.37;;;;;;;8.65;100.00;98928.38;5071683;28;20200;-80
2023/12/11 08:24:26;;;;;;;5.53;1.53;;;;;;;8.70;100.00;98928.84;5063126;28;20777;-79
2023/12/11 08:26:55;;;;;;;8.20;2.13;;;;;;;8.67;100.00;98927.28;5062990;28;20693;-80
2023/12/11 08:29:22;;;;;;;3.63;1.47;;;;;;;8.68;100.00;98928.13;5068614;28;20204;-78
2023/12/11 08:31:49;;;;;;;5.77;1.57;;;;;;;8.64;100.00;98924.03;5080851;28;20205;-76
2023/12/11 08:34:16;;;;;;;7.00;1.90;;;;;;;8.62;100.00;98924.16;5057372;28;20643;-78
2023/12/11 08:36:43;;;;;;;4.33;1.40;;;;;;;8.60;100.00;98927.91;5068365;28;20677;-78
2023/12/11 08:39:10;;;;;;;3.77;1.33;;;;;;;8.57;100.00;98923.72;5079850;28;20200;-78
2023/12/11 08:41:37;;;;;;;7.37;1.93;;;;;;;8.59;100.00;98913.81;5068845;28;20200;-78
2023/12/11 08:44:05;;;;;;;4.17;1.53;;;;;;;8.56;100.00;98921.19;5053470;28;20201;-78
2023/12/11 08:46:32;;;;;;;5.20;1.77;;;;;;;8.56;100.00;98921.19;5060664;28;20251;-78
2023/12/11 08:48:59;;;;;;;6.23;2.07;;;;;;;8.54;100.00;98916.00;5070142;28;20741;-79
2023/12/11 08:51:29;;;;;;;7.03;2.27;;;;;;;8.49;100.00;98914.69;5062603;28;20690;-77
2023/12/11 08:53:55;;;;;;;9.17;2.20;;;;;;;8.48;100.00;98915.66;5062898;28;20649;-78
2023/12/11 08:56:23;;;;;;;7.77;2.40;;;;;;;8.50;100.00;98911.06;5068025;28;20479;-77
2023/12/11 08:58:50;;;;;;;9.80;2.87;;;;;;;8.51;100.00;98920.72;5061550;28;20213;-77
2023/12/11 09:01:18;;;;;;;12.40;3.80;;;;;;;8.52;100.00;98914.44;5072720;28;20211;-77
2023/12/11 09:03:45;;;;;;;12.13;3.43;;;;;;;8.48;100.00;98915.66;5070133;28;20297;-79
2023/12/11 09:06:13;;;;;;;10.33;2.53;;;;;;;8.45;100.00;98918.56;5077775;28;20220;-79
2023/12/11 09:08:39;;;;;;;6.77;2.20;;;;;;;8.47;100.00;98912.16;5067292;28;20208;-78
2023/12/11 09:11:06;;;;;;;9.57;2.80;;;;;;;8.49;100.00;98917.34;5058551;28;20312;-78
2023/12/11 09:13:33;;;;;;;9.67;3.43;;;;;;;8.50;100.00;98917.22;5064621;28;20210;-78
2023/12/11 09:15:59;;;;;;;8.70;1.97;;;;;;;8.50;100.00;98903.97;5068603;28;20715;-78
2023/12/11 09:18:27;;;;;;;11.40;2.23;;;;;;;8.55;100.00;98901.78;5059990;28;20828;-77
2023/12/11 09:20:54;;;;;;;13.70;2.53;;;;;;;8.53;100.00;98903.72;5074521;28;20236;-77
2023/12/11 09:23:20;;;;;;;7.03;2.03;;;;;;;8.51;100.00;98904.81;5054118;28;20208;-77
2023/12/11 09:25:47;;;;;;;10.37;2.70;;;;;;;8.57;100.00;98899.00;5062300;28;20220;-77
2023/12/11 09:28:14;;;;;;;9.90;2.70;;;;;;;8.60;100.00;98901.38;5073672;28;20617;-78
2023/12/11 09:30:41;;;;;;;7.77;2.77;;;;;;;8.59;100.00;98889.94;5071399;28;20213;-76
2023/12/11 09:33:07;;;;;;;10.07;3.00;;;;;;;8.65;100.00;98891.22;5057600;28;20212;-79
2023/12/11 09:35:35;;;;;;;10.93;2.87;;;;;;;8.68;100.00;98891.81;5072848;28;20227;-78
2023/12/11 09:38:02;;;;;;;12.10;3.30;;;;;;;8.71;100.00;98885.41;5066238;28;20304;-77
2023/12/11 09:40:28;;;;;;;6.07;2.67;;;;;;;8.74;100.00;98890.47;5068379;28;20943;-78
2023/12/11 09:42:55;;;;;;;10.70;3.73;;;;;;;8.78;100.00;98891.88;5071900;28;20381;-78
2023/12/11 09:45:22;;;;;;;11.33;3.47;;;;;;;8.81;100.00;98896.94;5071742;28;20207;-77
2023/12/11 09:47:52;;;;;;;10.97;2.87;;;;;;;8.87;100.00;98885.81;5069613;28;20258;-78
2023/12/11 09:50:19;;;;;;;12.00;3.40;;;;;;;8.88;100.00;98902.59;5073032;28;20208;-77
2023/12/11 09:52:49;;;;;;;6.33;2.53;;;;;;;8.92;100.00;98888.09;5078247;28;20211;-78
2023/12/11 09:55:16;;;;;;;8.07;2.67;;;;;;;8.95;100.00;98893.97;5078980;28;20207;-78
2023/12/11 09:57:43;;;;;;;7.40;2.67;;;;;;;8.94;100.00;98897.59;5075408;28;20225;-76
2023/12/11 10:00:11;;;;;;;11.20;2.53;;;;;;;8.97;100.00;98886.69;5064652;28;20201;-77
2023/12/11 10:02:40;;;;;;;7.47;2.43;;;;;;;8.98;100.00;98893.69;5069189;28;20202;-77
2023/12/11 10:05:08;;;;;;;9.73;2.77;;;;;;;9.03;100.00;98883.53;5081965;28;20193;-79
2023/12/11 10:07:36;;;;;;;6.70;2.33;;;;;;;9.04;100.00;98890.53;5065164;28;20212;-79
2023/12/11 10:12:58;;;;;;;11.50;3.67;;;;;;;9.00;100.00;98874.97;5072477;27;20581;-73
2023/12/11 10:15:27;;;;;;;7.87;2.10;;;;;;;9.02;100.00;98868.56;5070368;28;20210;-73
2023/12/11 10:18:05;;;;;;;10.43;2.60;;;;;;;8.99;100.00;98873.31;5070743;28;20255;-73
2023/12/11 10:20:33;;;;;;;7.20;2.93;;;;;;;8.96;100.00;98863.78;5068735;28;20220;-73
2023/12/11 10:22:59;;;;;;;6.43;2.53;;;;;;;9.00;100.00;98864.38;5071110;28;20200;-73
2023/12/11 10:25:27;;;;;;;5.57;2.30;;;;;;;8.99;100.00;98857.38;5071172;28;20446;-74
2023/12/11 10:28:09;;;;;;;5.50;1.70;;;;;;;8.94;100.00;98854.28;5069381;28;20207;-72
2023/12/11 10:30:49;;;;;;;8.87;1.73;;;;;;;8.95;100.00;98855.97;5067888;28;20227;-73
2023/12/11 10:33:16;;;;;;;5.17;1.50;;;;;;;8.96;100.00;98854.97;5069751;28;20196;-73
2023/12/11 10:35:42;;;;;;;6.90;1.30;;;;;;;8.95;100.00;98845.34;5073724;28;20201;-72
2023/12/11 10:38:09;;;;;;;5.20;1.10;;;;;;;8.95;100.00;98848.84;5067660;28;20215;-73
2023/12/11 10:40:40;;;;;;;5.10;1.20;;;;;;;8.96;100.00;98847.00;5071076;28;20576;-73
2023/12/11 10:43:09;;;;;;;3.47;1.70;;;;;;;8.99;100.00;98844.94;5067603;28;20210;-73
2023/12/11 10:45:35;;;;;;;5.27;1.63;;;;;;;8.94;100.00;98836.53;5070155;28;20203;-73
2023/12/11 10:48:03;;;;;;;7.77;3.27;;;;;;;8.95;100.00;98840.03;5066367;28;20201;-73
2023/12/11 10:50:30;;;;;;;9.27;4.20;;;;;;;8.91;100.00;98828.84;5069967;28;20813;-73
2023/12/11 10:52:59;;;;;;;4.00;2.43;;;;;;;8.93;100.00;98834.00;5069956;28;20224;-73
2023/12/11 10:55:26;;;;;;;3.33;1.53;;;;;;;8.95;100.00;98837.38;5070371;28;20669;-73
2023/12/11 10:57:53;;;;;;;18.03;6.67;;;;;;;8.97;100.00;98811.50;5060690;28;20261;-72
2023/12/11 11:00:21;;;;;;;3.87;1.90;;;;;;;8.94;100.00;98833.88;5061781;28;20260;-72
2023/12/11 11:02:52;;;;;;;4.93;2.13;;;;;;;8.95;100.00;98835.56;5065773;28;20259;-73
2023/12/11 11:05:19;;;;;;;14.40;6.00;;;;;;;9.01;100.00;98834.19;5067633;28;20204;-73
2023/12/11 11:07:54;;;;;;;13.80;7.20;;;;;;;9.00;100.00;98837.81;5067996;28;20205;-73
2023/12/11 11:10:24;;;;;;;3.90;2.10;;;;;;;9.00;100.00;98841.31;5062002;28;20320;-72
2023/12/11 11:12:57;;;;;;;4.70;1.93;;;;;;;8.99;100.00;98844.09;5071014;28;20224;-73
2023/12/11 11:15:25;;;;;;;2.27;1.40;;;;;;;8.99;100.00;98842.28;5066993;28;20211;-73
2023/12/11 11:17:57;;;;;;;2.47;1.30;;;;;;;9.01;100.00;98839.50;5071383;28;21760;-72
2023/12/11 11:20:24;;;;;;;2.67;1.60;;;;;;;9.02;100.00;98839.38;5068054;28;20220;-73
2023/12/11 11:22:50;;;;;;;2.50;1.23;;;;;;;9.03;100.00;98849.03;5063317;28;20216;-72
2023/12/11 11:25:34;;;;;;;2.47;1.20;;;;;;;9.05;100.00;98841.75;5059223;28;20212;-73
2023/12/11 11:28:01;;;;;;;2.73;1.33;;;;;;;9.04;100.00;98844.53;5049486;28;21536;-72
2023/12/11 11:30:51;;;;;;;3.03;1.40;;;;;;;9.00;100.00;98832.50;5055473;28;20232;-73
2023/12/11 11:33:17;;;;;;;2.23;1.13;;;;;;;8.99;100.00;98842.28;5052267;28;20232;-72
2023/12/11 11:35:52;;;;;;;4.43;1.00;;;;;;;8.99;100.00;98826.34;5052683;28;20213;-72
2023/12/11 11:38:21;;;;;;;2.13;0.90;;;;;;;8.99;100.00;98834.31;5049585;28;20208;-73